Terminal Aerodrome Forecast
Issued by NWS Flagstaff, AZ

Home | Current Version | Previous Version | Text Only | Print | Product List | Glossary On
Versions: 1 2 3 4 5 6 7 8 9 10 11 12 13 14 15 16 17 18 19
383
FTUS45 KFGZ 230521
TAFFLG
TAF
KFLG 230521Z 2306/2406 23014G24KT P6SM SCT030 BKN050
     FM231200 23010G15KT P6SM SCT030 SCT050
     FM231800 25012G24KT P6SM FEW030
     FM240200 25006KT P6SM FEW030=

USA.gov is the U.S. government's official web portal to all federal, state and local government web resources and services.